createdAt,value
2019-01-14T00:01:23.347Z,96496.95
2019-01-14T00:03:53.818Z,96498.62
2019-01-14T00:06:24.425Z,96504.67
2019-01-14T00:08:55.062Z,96506.31
2019-01-14T00:11:25.627Z,96498.15
2019-01-14T00:13:56.018Z,96498.36
2019-01-14T00:16:26.618Z,96507.67
2019-01-14T00:18:57.177Z,96503.84
2019-01-14T00:21:27.574Z,96510.09
2019-01-14T00:23:58.035Z,96502.77
2019-01-14T00:26:28.589Z,96511.28
2019-01-14T00:28:58.973Z,96513.36
2019-01-14T00:31:29.485Z,96513.10
2019-01-14T00:34:00.321Z,96518.53
2019-01-14T00:36:30.847Z,96515.92
2019-01-14T00:39:01.272Z,96512.13
2019-01-14T00:41:31.817Z,96517.69
2019-01-14T00:44:02.275Z,96519.31
2019-01-14T00:46:32.763Z,96520.85
2019-01-14T00:49:03.222Z,96532.27
2019-01-14T00:51:33.842Z,96528.05
2019-01-14T00:54:04.567Z,96534.40
2019-01-14T00:56:35.097Z,96539.12
2019-01-14T00:59:06.138Z,96537.84
2019-01-14T01:01:36.606Z,96541.33
2019-01-14T01:04:07.267Z,96539.17
2019-01-14T01:06:37.783Z,96540.05
2019-01-14T01:09:09.415Z,96545.66
2019-01-14T01:11:39.892Z,96548.53
2019-01-14T01:14:10.405Z,96544.23
2019-01-14T01:16:41.059Z,96543.01
2019-01-14T01:19:11.672Z,96549.11
2019-01-14T01:21:42.077Z,96557.62
2019-01-14T01:24:12.515Z,96547.57
2019-01-14T01:26:43.113Z,96554.38
2019-01-14T01:29:13.595Z,96555.16
2019-01-14T01:31:44.014Z,96564.47
2019-01-14T01:34:14.506Z,96557.72
2019-01-14T01:36:44.974Z,96573.83
2019-01-14T01:39:15.452Z,96566.62
2019-01-14T01:41:46.080Z,96562.35
2019-01-14T01:44:16.461Z,96567.47
2019-01-14T01:46:46.981Z,96572.19
2019-01-14T01:49:17.488Z,96561.08
2019-01-14T01:51:47.967Z,96569.59
2019-01-14T01:54:18.468Z,96572.50
2019-01-14T01:56:48.982Z,96571.70
2019-01-14T01:59:19.421Z,96576.34
2019-01-14T02:01:49.805Z,96580.27
2019-01-14T02:04:20.267Z,96585.39
2019-01-14T02:06:50.919Z,96585.92
2019-01-14T02:09:21.307Z,96593.20
2019-01-14T02:11:52.071Z,96581.98
2019-01-14T02:14:22.751Z,96583.47
2019-01-14T02:16:53.578Z,96596.56
2019-01-14T02:19:24.028Z,96592.33
2019-01-14T02:21:54.925Z,96590.59
2019-01-14T02:24:25.327Z,96608.69
2019-01-14T02:26:55.739Z,96607.05
2019-01-14T02:29:26.236Z,96613.20
2019-01-14T02:31:56.798Z,96614.10
2019-01-14T02:34:27.217Z,96619.66
2019-01-14T02:36:57.754Z,96622.80
2019-01-14T02:39:28.137Z,96640.53
2019-01-14T02:41:58.547Z,96634.19
2019-01-14T02:44:29.084Z,96653.76
2019-01-14T02:46:59.542Z,96642.59
2019-01-14T02:49:29.977Z,96634.61
2019-01-14T02:52:00.501Z,96655.84
2019-01-14T02:54:30.818Z,96652.95
2019-01-14T02:57:01.186Z,96649.69
2019-01-14T02:59:31.655Z,96655.74
2019-01-14T03:02:02.079Z,96657.25
2019-01-14T03:04:32.488Z,96657.70
2019-01-14T03:07:03.013Z,96670.80
2019-01-14T03:09:33.571Z,96673.11
2019-01-14T03:12:04.367Z,96669.27
2019-01-14T03:14:34.777Z,96669.04
2019-01-14T03:17:05.278Z,96685.45
2019-01-14T03:19:37.543Z,96683.18
2019-01-14T03:22:08.069Z,96691.64
2019-01-14T03:24:38.565Z,96702.70
2019-01-14T03:27:08.997Z,96724.84
2019-01-14T03:29:39.503Z,96716.36
2019-01-14T03:32:10.523Z,96721.19
2019-01-14T03:34:40.983Z,96722.27
2019-01-14T03:37:11.577Z,96730.15
2019-01-14T03:39:42.138Z,96730.03
2019-01-14T03:42:12.689Z,96730.91
2019-01-14T03:44:43.088Z,96738.98
2019-01-14T03:47:13.716Z,96735.97
2019-01-14T03:49:44.153Z,96742.36
2019-01-14T03:52:15.073Z,96740.86
2019-01-14T03:54:45.662Z,96753.77
2019-01-14T03:57:16.161Z,96761.16
2019-01-14T03:59:46.485Z,96758.05
2019-01-14T04:02:16.947Z,96763.66
2019-01-14T04:04:47.628Z,96760.61
2019-01-14T04:07:18.103Z,96774.22
2019-01-14T04:09:48.437Z,96786.00
2019-01-14T04:12:18.911Z,96784.32
2019-01-14T04:14:49.617Z,96787.88
2019-01-14T04:17:20.166Z,96787.77
2019-01-14T04:19:50.546Z,96800.87
2019-01-14T04:22:20.952Z,96797.86
2019-01-14T04:24:51.317Z,96805.66
2019-01-14T04:27:21.838Z,96815.54
2019-01-14T04:29:52.412Z,96804.92
2019-01-14T04:32:23.023Z,96804.98
2019-01-14T04:34:53.613Z,96800.87
2019-01-14T04:37:24.097Z,96815.05
2019-01-14T04:39:54.559Z,96801.55
2019-01-14T04:42:25.113Z,96831.00
2019-01-14T04:44:55.603Z,96830.45
2019-01-14T04:47:26.108Z,96815.55
2019-01-14T04:49:56.467Z,96841.44
2019-01-14T04:52:26.976Z,96834.19
2019-01-14T04:54:57.372Z,96851.46
2019-01-14T04:57:27.752Z,96871.48
2019-01-14T04:59:58.817Z,96855.35
2019-01-14T05:02:29.695Z,96870.61
2019-01-14T05:05:00.234Z,96879.27
2019-01-14T05:07:30.775Z,96879.42
2019-01-14T05:10:01.190Z,96877.40
2019-01-14T05:12:31.706Z,96899.57
2019-01-14T05:15:02.105Z,96919.05
2019-01-14T05:17:32.519Z,96906.61
2019-01-14T05:20:03.190Z,96918.85
2019-01-14T05:22:33.728Z,96924.22
2019-01-14T05:25:04.673Z,96932.51
2019-01-14T05:27:35.202Z,96944.07
2019-01-14T05:30:07.238Z,96951.98
2019-01-14T05:32:37.907Z,96966.56
2019-01-14T05:35:08.941Z,96971.28
2019-01-14T05:37:39.449Z,96963.36
2019-01-14T05:40:18.273Z,96986.66
2019-01-14T05:42:48.819Z,96994.73
2019-01-14T05:45:19.377Z,96996.12
2019-01-14T05:47:50.603Z,97018.65
2019-01-14T05:50:21.162Z,97021.41
2019-01-14T05:52:51.611Z,97020.20
2019-01-14T05:55:22.122Z,97029.77
2019-01-14T05:57:52.709Z,97025.12
2019-01-14T06:00:39.721Z,97046.84
2019-01-14T06:03:10.207Z,97061.64
2019-01-14T06:05:40.655Z,97063.12
2019-01-14T06:08:11.102Z,97061.71
2019-01-14T06:10:41.629Z,97062.36
2019-01-14T06:13:12.163Z,97074.36
2019-01-14T06:15:42.825Z,97077.20
2019-01-14T06:18:13.767Z,97077.73
2019-01-14T06:20:44.357Z,97113.67
2019-01-14T06:23:14.828Z,97121.25
2019-01-14T06:25:45.726Z,97122.27
2019-01-14T06:28:16.213Z,97144.02
2019-01-14T06:30:46.706Z,97133.62
2019-01-14T06:33:17.267Z,97139.83
2019-01-14T06:35:47.677Z,97143.20
2019-01-14T06:38:18.697Z,97149.45
2019-01-14T06:40:49.467Z,97149.34
2019-01-14T06:43:20.177Z,97157.38
2019-01-14T06:45:50.897Z,97159.90
2019-01-14T06:48:21.527Z,97168.82
2019-01-14T06:50:52.349Z,97180.45
2019-01-14T06:53:22.864Z,97182.77
2019-01-14T06:55:55.991Z,97177.05
2019-01-14T06:58:26.655Z,97184.31
2019-01-14T07:00:57.402Z,97181.37
2019-01-14T07:03:28.241Z,97189.19
2019-01-14T07:05:59.231Z,97195.83
2019-01-14T07:08:29.787Z,97200.05
2019-01-14T07:11:00.670Z,97207.36
2019-01-14T07:13:31.207Z,97203.06
2019-01-14T07:16:01.632Z,97211.18
2019-01-14T07:18:32.152Z,97211.37
2019-01-14T07:21:03.083Z,97219.45
2019-01-14T07:23:33.395Z,97216.19
2019-01-14T07:26:04.183Z,97220.97
2019-01-14T07:28:34.641Z,97218.08
2019-01-14T07:31:05.227Z,97213.80
2019-01-14T07:33:35.805Z,97223.44
2019-01-14T07:36:06.543Z,97237.05
2019-01-14T07:38:37.018Z,97227.89
2019-01-14T07:41:07.614Z,97256.60
2019-01-14T07:43:38.162Z,97250.14
2019-01-14T07:46:08.805Z,97264.45
2019-01-14T07:48:39.316Z,97261.76
2019-01-14T07:51:10.076Z,97267.92
2019-01-14T07:53:40.712Z,97281.84
2019-01-14T07:56:11.941Z,97291.22
2019-01-14T07:58:43.097Z,97306.30
2019-01-14T08:01:13.664Z,97285.95
2019-01-14T08:03:44.245Z,97317.34
2019-01-14T08:06:14.873Z,97345.72
2019-01-14T08:08:45.531Z,97348.36
2019-01-14T08:11:15.952Z,97350.90
2019-01-14T08:13:46.489Z,97352.77
2019-01-14T08:16:17.105Z,97345.52
2019-01-14T08:18:47.655Z,97346.13
2019-01-14T08:21:18.648Z,97358.55
2019-01-14T08:23:49.411Z,97369.40
2019-01-14T08:26:19.856Z,97372.72
2019-01-14T08:28:50.532Z,97368.11
2019-01-14T08:31:21.159Z,97370.08
2019-01-14T08:33:51.573Z,97369.09
2019-01-14T08:36:22.263Z,97368.48
2019-01-14T08:38:52.791Z,97369.07
2019-01-14T08:41:26.162Z,97372.33
2019-01-14T08:44:00.922Z,97384.30
2019-01-14T08:46:32.027Z,97379.92
2019-01-14T08:49:02.492Z,97386.70
2019-01-14T08:51:32.932Z,97381.33
2019-01-14T08:54:03.281Z,97388.09
2019-01-14T08:56:33.738Z,97393.63
2019-01-14T08:59:04.394Z,97408.23
2019-01-14T09:01:34.829Z,97409.91
2019-01-14T09:04:05.807Z,97366.66
2019-01-14T09:06:36.412Z,97421.73
2019-01-14T09:09:10.159Z,97432.06
2019-01-14T09:11:40.673Z,97428.19
2019-01-14T09:14:11.164Z,97423.81
2019-01-14T09:16:41.751Z,97427.37
2019-01-14T09:19:12.273Z,97416.59
2019-01-14T09:21:42.692Z,97426.59
2019-01-14T09:24:13.111Z,97424.71
2019-01-14T09:26:45.025Z,97436.48
2019-01-14T09:29:15.718Z,97430.35
2019-01-14T09:31:46.696Z,97435.72
2019-01-14T09:34:17.170Z,97435.55
2019-01-14T09:36:47.628Z,97427.95
2019-01-14T09:39:18.163Z,97436.11
2019-01-14T09:41:48.653Z,97444.38
2019-01-14T09:44:19.122Z,97428.85
2019-01-14T09:46:49.604Z,97430.59
2019-01-14T09:49:20.136Z,97437.19
2019-01-14T09:51:50.634Z,97442.30
2019-01-14T09:54:21.220Z,97432.64
2019-01-14T09:56:51.682Z,97457.33
2019-01-14T09:59:22.096Z,97455.66
2019-01-14T10:01:52.521Z,97473.72
2019-01-14T10:04:22.991Z,97467.02
2019-01-14T10:06:53.412Z,97477.47
2019-01-14T10:09:23.995Z,97467.34
2019-01-14T10:11:54.442Z,97475.83
2019-01-14T10:14:24.826Z,97474.17
2019-01-14T10:16:56.476Z,97482.39
2019-01-14T10:19:26.902Z,97482.52
2019-01-14T10:21:57.446Z,97475.73
2019-01-14T10:24:27.846Z,97484.36
2019-01-14T10:26:58.354Z,97486.41
2019-01-14T10:29:29.023Z,97483.48
2019-01-14T10:31:59.503Z,97498.45
2019-01-14T10:34:29.945Z,97493.47
2019-01-14T10:37:00.549Z,97483.77
2019-01-14T10:39:31.008Z,97489.50
2019-01-14T10:42:05.061Z,97464.88
2019-01-14T10:44:33.723Z,97493.95
2019-01-14T10:47:04.425Z,97501.28
2019-01-14T10:49:34.882Z,97487.31
2019-01-14T10:52:05.853Z,97475.53
2019-01-14T10:54:36.298Z,97484.03
2019-01-14T10:57:06.813Z,97486.77
2019-01-14T10:59:37.204Z,97491.52
2019-01-14T11:02:07.987Z,97494.03
2019-01-14T11:04:38.474Z,97483.69
2019-01-14T11:07:08.955Z,97486.41
2019-01-14T11:09:39.618Z,97507.94
2019-01-14T11:12:10.240Z,97497.05
2019-01-14T11:14:40.775Z,97507.07
2019-01-14T11:17:11.159Z,97513.17
2019-01-14T11:19:41.741Z,97507.28
2019-01-14T11:22:12.696Z,97508.75
2019-01-14T11:24:52.647Z,97500.16
2019-01-14T11:27:23.385Z,97514.83
2019-01-14T11:29:54.700Z,97515.33
2019-01-14T11:32:25.735Z,97526.44
2019-01-14T11:34:56.336Z,97514.27
2019-01-14T11:37:26.873Z,97519.52
2019-01-14T11:39:57.507Z,97516.98
2019-01-14T11:42:28.193Z,97517.63
2019-01-14T11:44:58.847Z,97518.23
2019-01-14T11:47:29.485Z,97513.89
2019-01-14T11:49:59.996Z,97511.06
2019-01-14T11:52:30.433Z,97530.09
2019-01-14T11:55:00.819Z,97526.16
2019-01-14T11:57:31.356Z,97521.09
2019-01-14T12:00:05.155Z,97539.17
2019-01-14T12:02:40.131Z,97533.56
2019-01-14T12:05:11.494Z,97501.24
2019-01-14T12:07:47.475Z,97529.17
2019-01-14T12:10:22.615Z,97531.07
2019-01-14T12:12:53.033Z,97523.83
2019-01-14T12:15:27.048Z,97540.52
2019-01-14T12:17:57.854Z,97537.09
2019-01-14T12:20:28.351Z,97545.47
2019-01-14T12:22:58.916Z,97535.29
2019-01-14T12:25:29.383Z,97541.42
2019-01-14T12:27:59.687Z,97550.80
2019-01-14T12:30:38.108Z,97539.26
2019-01-14T12:33:09.021Z,97544.99
2019-01-14T12:35:39.378Z,97546.82
2019-01-14T12:38:09.885Z,97555.95
2019-01-14T12:40:40.315Z,97558.77
2019-01-14T12:43:10.701Z,97552.59
2019-01-14T12:45:41.458Z,97570.33
2019-01-14T12:48:11.966Z,97570.37
2019-01-14T12:50:42.549Z,97560.45
2019-01-14T12:53:13.298Z,97571.98
2019-01-14T12:55:43.761Z,97564.78
2019-01-14T12:58:14.825Z,97582.17
2019-01-14T13:00:45.572Z,97583.68
2019-01-14T13:03:15.938Z,97568.16
2019-01-14T13:05:46.412Z,97598.82
2019-01-14T13:08:16.967Z,97594.81
2019-01-14T13:10:47.417Z,97591.66
2019-01-14T13:13:17.974Z,97612.46
2019-01-14T13:15:50.363Z,97607.36
2019-01-14T13:18:20.776Z,97605.18
2019-01-14T13:20:51.193Z,97617.81
2019-01-14T13:23:21.600Z,97633.73
2019-01-14T13:25:52.097Z,97620.80
2019-01-14T13:28:22.967Z,97632.20
2019-01-14T13:30:53.429Z,97633.09
2019-01-14T13:33:24.036Z,97630.27
2019-01-14T13:35:54.631Z,97629.17
2019-01-14T13:38:25.145Z,97633.58
2019-01-14T13:40:55.683Z,97629.75
2019-01-14T13:43:26.541Z,97631.54
2019-01-14T13:45:57.013Z,97622.44
2019-01-14T13:48:27.466Z,97644.48
2019-01-14T13:50:58.048Z,97651.83
2019-01-14T13:53:28.628Z,97655.04
2019-01-14T13:55:59.656Z,97656.33
2019-01-14T13:58:30.264Z,97646.63
2019-01-14T14:01:00.774Z,97666.40
2019-01-14T14:03:31.355Z,97655.70
2019-01-14T14:06:01.844Z,97661.49
2019-01-14T14:08:32.302Z,97659.46
2019-01-14T14:11:02.911Z,97656.91
2019-01-14T14:13:34.647Z,97679.64
2019-01-14T14:16:05.225Z,97693.18
2019-01-14T14:18:35.708Z,97689.61
2019-01-14T14:21:06.111Z,97705.50
2019-01-14T14:23:36.597Z,97727.05
2019-01-14T14:26:07.174Z,97749.52
2019-01-14T14:28:37.582Z,97756.64
2019-01-14T14:31:08.142Z,97785.55
2019-01-14T14:33:38.582Z,97786.59
2019-01-14T14:36:09.113Z,97768.72
2019-01-14T14:38:39.542Z,97774.28
2019-01-14T14:41:09.944Z,97776.48
2019-01-14T14:43:40.543Z,97788.38
2019-01-14T14:46:11.014Z,97796.22
2019-01-14T14:48:41.507Z,97831.49
2019-01-14T15:08:31.120Z,97856.53
2019-01-14T15:11:01.996Z,97836.66
2019-01-14T15:13:32.439Z,97841.47
2019-01-14T15:16:03.419Z,97845.02
2019-01-14T15:18:34.473Z,97853.63
2019-01-14T15:21:05.072Z,97860.73
2019-01-14T15:23:35.567Z,97867.17
2019-01-14T15:26:06.120Z,97872.49
2019-01-14T15:28:36.922Z,97876.38
2019-01-14T15:31:08.002Z,97876.91
2019-01-14T15:33:38.555Z,97896.90
2019-01-14T15:36:09.016Z,97896.36
2019-01-14T15:38:39.726Z,97898.78
2019-01-14T15:41:10.248Z,97867.94
2019-01-14T15:43:40.843Z,97902.63
2019-01-14T15:46:11.378Z,97913.93
2019-01-14T15:48:42.017Z,97926.50
2019-01-14T15:51:12.562Z,97946.66
2019-01-14T15:53:43.063Z,97948.30
2019-01-14T15:56:13.572Z,97956.52
2019-01-14T15:58:44.072Z,97967.05
2019-01-14T16:01:14.708Z,97972.89
2019-01-14T16:03:45.282Z,97973.25
2019-01-14T16:06:15.832Z,97979.59
2019-01-14T16:08:46.302Z,98004.44
2019-01-14T16:11:16.813Z,97998.97
2019-01-14T16:13:47.553Z,98017.22
2019-01-14T16:16:18.484Z,98021.52
2019-01-14T16:18:51.522Z,98035.70
2019-01-14T16:21:23.702Z,98033.56
2019-01-14T16:23:55.142Z,98039.25
2019-01-14T16:26:25.536Z,98036.47
2019-01-14T16:29:01.300Z,98037.98
2019-01-14T16:31:31.985Z,98058.00
2019-01-14T16:34:02.507Z,98063.72
2019-01-14T16:36:38.077Z,98066.63
2019-01-14T16:39:09.919Z,98072.95
2019-01-14T16:41:45.066Z,98079.83
2019-01-14T16:44:15.720Z,98081.83
2019-01-14T16:46:52.728Z,98087.38
2019-01-14T16:49:26.907Z,98085.09
2019-01-14T16:51:58.658Z,98092.81
2019-01-14T16:54:31.143Z,98092.44
2019-01-14T16:57:01.772Z,98103.06
2019-01-14T16:59:44.278Z,98114.44
2019-01-14T17:02:19.736Z,98110.64
2019-01-14T17:04:52.458Z,98124.81
2019-01-14T17:07:23.092Z,98136.50
2019-01-14T17:09:53.744Z,98145.08
2019-01-14T17:12:27.452Z,98148.13
2019-01-14T17:15:01.669Z,98154.84
2019-01-14T17:17:33.272Z,98167.61
2019-01-14T17:20:09.592Z,98169.00
2019-01-14T17:22:42.730Z,98177.14
2019-01-14T17:25:14.351Z,98184.63
2019-01-14T17:27:45.647Z,98178.06
2019-01-14T17:30:18.613Z,98182.11
2019-01-14T17:32:50.249Z,98190.84
2019-01-14T17:35:24.243Z,98187.39
2019-01-14T17:37:54.781Z,98191.69
2019-01-14T17:40:32.503Z,98202.55
2019-01-14T17:43:08.985Z,98203.41
2019-01-14T17:45:40.450Z,98215.47
2019-01-14T17:48:15.160Z,98220.41
2019-01-14T17:50:45.638Z,98225.05
2019-01-14T17:53:16.147Z,98239.67
2019-01-14T17:55:47.171Z,98238.25
2019-01-14T17:58:20.300Z,98252.42
2019-01-14T18:00:51.482Z,98248.99
2019-01-14T18:03:27.237Z,98257.44
2019-01-14T18:05:57.936Z,98255.64
2019-01-14T18:08:29.664Z,98258.17
2019-01-14T18:11:07.238Z,98262.66
2019-01-14T18:13:37.976Z,98265.30
2019-01-14T18:16:09.838Z,98261.99
2019-01-14T18:19:07.745Z,98260.83
2019-01-14T18:21:39.174Z,98268.27
2019-01-14T18:24:10.048Z,98275.42
2019-01-14T18:26:43.273Z,98278.16
2019-01-14T18:29:14.525Z,98280.61
2019-01-14T18:31:49.015Z,98278.22
2019-01-14T18:34:24.087Z,98292.84
2019-01-14T18:36:55.919Z,98299.94
2019-01-14T18:39:35.856Z,98305.80
2019-01-14T18:42:08.133Z,98302.21
2019-01-14T18:44:40.044Z,98308.74
2019-01-14T18:47:11.087Z,98312.30
2019-01-14T18:49:47.857Z,98320.12
2019-01-14T18:52:20.068Z,98315.03
2019-01-14T18:54:53.517Z,98327.42
2019-01-14T18:57:25.167Z,98334.77
2019-01-14T19:00:02.002Z,98336.84
2019-01-14T19:02:36.675Z,98336.48
2019-01-14T19:05:07.869Z,98345.34
2019-01-14T19:07:42.210Z,98346.06
2019-01-14T19:10:17.727Z,98354.50
2019-01-14T19:12:55.139Z,98345.88
2019-01-14T19:15:29.918Z,98364.81
2019-01-14T19:18:03.402Z,98376.97
2019-01-14T19:20:44.725Z,98368.34
2019-01-14T19:23:20.572Z,98367.44
2019-01-14T19:25:57.966Z,98383.62
2019-01-14T19:28:28.597Z,98379.87
2019-01-14T19:30:59.208Z,98378.55
2019-01-14T19:33:34.422Z,98386.48
2019-01-14T19:36:05.201Z,98384.78
2019-01-14T19:38:40.418Z,98385.73
2019-01-14T19:41:12.091Z,98389.67
2019-01-14T19:43:52.725Z,98393.46
2019-01-14T19:46:30.552Z,98384.87
2019-01-14T19:49:08.353Z,98390.97
2019-01-14T19:51:42.592Z,98380.48
2019-01-14T19:54:17.953Z,98392.51
2019-01-14T19:56:52.866Z,98393.72
2019-01-14T19:59:23.550Z,98398.38
2019-01-14T20:02:05.371Z,98403.80
2019-01-14T20:04:38.162Z,98394.41
2019-01-14T20:07:12.473Z,98405.20
2019-01-14T20:09:46.309Z,98408.23
2019-01-14T20:12:19.984Z,98410.00
2019-01-14T20:14:55.208Z,98418.81
2019-01-14T20:17:32.308Z,98418.67
2019-01-14T20:20:12.927Z,98424.20
2019-01-14T20:22:48.386Z,98427.72
2019-01-14T20:25:25.020Z,98419.86
2019-01-14T20:28:02.189Z,98425.14
2019-01-14T20:30:36.061Z,98430.07
2019-01-14T20:33:10.846Z,98425.05
2019-01-14T20:35:43.534Z,98429.58
2019-01-14T20:38:17.712Z,98435.91
2019-01-14T20:40:53.168Z,98438.92
2019-01-14T20:43:27.946Z,98440.33
2019-01-14T20:46:01.583Z,98439.70
2019-01-14T20:48:38.118Z,98440.61
2019-01-14T20:51:13.114Z,98440.69
2019-01-14T20:53:44.817Z,98437.17
2019-01-14T20:56:18.197Z,98433.38
2019-01-14T20:58:52.083Z,98442.50
2019-01-14T21:01:34.496Z,98454.61
2019-01-14T21:04:11.644Z,98454.89
2019-01-14T21:06:42.240Z,98448.06
2019-01-14T21:09:14.024Z,98457.42
2019-01-14T21:11:44.772Z,98452.84
2019-01-14T21:14:17.855Z,98460.04
2019-01-14T21:16:49.662Z,98458.95
2019-01-14T21:19:26.607Z,98460.21
2019-01-14T21:21:58.262Z,98461.75
2019-01-14T21:24:39.403Z,98460.21
2019-01-14T21:27:13.910Z,98472.86
2019-01-14T21:29:45.119Z,98465.02
2019-01-14T21:32:15.815Z,98472.33
2019-01-14T21:34:50.340Z,98477.16
2019-01-14T21:37:21.329Z,98479.70
2019-01-14T21:39:58.875Z,98484.62
2019-01-14T21:42:32.752Z,98483.22
2019-01-14T21:45:03.320Z,98490.72
2019-01-14T21:47:35.087Z,98486.52
2019-01-14T21:50:08.448Z,98485.80
2019-01-14T21:52:39.090Z,98493.08
2019-01-14T21:55:12.674Z,98488.05
2019-01-14T21:57:43.080Z,98495.33
2019-01-14T22:00:20.329Z,98499.66
2019-01-14T22:02:50.917Z,98499.72
2019-01-14T22:05:21.598Z,98506.31
2019-01-14T22:07:52.239Z,98508.57
2019-01-14T22:10:26.314Z,98510.44
2019-01-14T22:12:57.144Z,98515.02
2019-01-14T22:15:28.139Z,98518.17
2019-01-14T22:17:58.808Z,98529.47
2019-01-14T22:20:30.761Z,98520.85
2019-01-14T22:23:01.333Z,98521.42
2019-01-14T22:25:32.239Z,98519.80
2019-01-14T22:28:02.794Z,98516.63
2019-01-14T22:30:36.123Z,98519.83
2019-01-14T22:33:06.687Z,98521.66
2019-01-14T22:35:37.207Z,98515.36
2019-01-14T22:38:08.048Z,98521.73
2019-01-14T22:40:38.482Z,98529.13
2019-01-14T22:43:08.897Z,98536.50
2019-01-14T22:45:39.503Z,98526.16
2019-01-14T22:48:09.967Z,98535.30
2019-01-14T22:50:40.458Z,98538.87
2019-01-14T22:53:11.185Z,98534.95
2019-01-14T22:55:41.453Z,98527.84
2019-01-14T22:58:11.873Z,98535.48
2019-01-14T23:01:08.110Z,98541.33
2019-01-14T23:03:39.482Z,98541.70
2019-01-14T23:06:10.161Z,98531.81
2019-01-14T23:08:40.810Z,98543.66
2019-01-14T23:11:11.183Z,98542.01
2019-01-14T23:13:41.627Z,98548.49
2019-01-14T23:16:12.547Z,98549.23
2019-01-14T23:18:43.128Z,98554.97
2019-01-14T23:21:13.707Z,98556.63
2019-01-14T23:23:44.364Z,98552.69
2019-01-14T23:26:14.852Z,98557.30
2019-01-14T23:28:45.304Z,98559.83
2019-01-14T23:31:15.952Z,98570.51
2019-01-14T23:33:46.536Z,98566.94
2019-01-14T23:36:17.028Z,98569.13
2019-01-14T23:38:47.588Z,98572.57
2019-01-14T23:41:18.228Z,98566.73
2019-01-14T23:43:48.897Z,98561.30
2019-01-14T23:46:19.447Z,98571.33
2019-01-14T23:48:50.067Z,98572.12
2019-01-14T23:51:20.649Z,98569.72
2019-01-14T23:53:51.482Z,98574.39
2019-01-14T23:56:22.040Z,98568.68
2019-01-14T23:58:52.638Z,98576.19
